Time,TemperatureF,DewpointF,PressureIn,WindDirection,WindDirectionDegrees,WindSpeedMPH,WindSpeedGustMPH,Humidity,HourlyPrecipIn,Conditions,Clouds,dailyrainin,SolarRadiationWatts/m^2,SoftwareType,DateUTC
2013-02-25 00:01:00,57.0,55.0,-100.00,West,279,1.0,2.0,92,0.00,,,0.04,0.000000,,2013-02-25 05:01:00,
2013-02-25 00:32:00,57.0,55.0,-100.00,ENE,57,1.0,2.0,92,0.00,,,0.00,0.000000,,2013-02-25 05:32:00,
2013-02-25 00:42:00,57.0,55.0,-100.00,ENE,57,1.0,2.0,92,0.00,,,0.00,0.000000,,2013-02-25 05:42:00,
2013-02-25 00:52:00,57.0,55.0,-100.00,ENE,57,1.0,2.0,92,0.00,,,0.00,0.000000,,2013-02-25 05:52:00,
2013-02-25 01:02:00,57.0,55.0,-100.00,ENE,57,1.0,2.0,92,0.00,,,0.00,0.000000,,2013-02-25 06:02:00,
2013-02-25 01:32:00,57.0,54.0,-100.00,ESE,113,2.0,4.0,91,0.00,,,0.00,0.000000,,2013-02-25 06:32:00,
2013-02-25 01:42:00,57.0,54.0,-100.00,ESE,113,2.0,4.0,91,0.00,,,0.00,0.000000,,2013-02-25 06:42:00,
2013-02-25 01:52:00,57.0,54.0,-100.00,ESE,113,2.0,4.0,91,0.00,,,0.00,0.000000,,2013-02-25 06:52:00,
2013-02-25 02:01:00,57.0,54.0,-100.00,ESE,113,2.0,4.0,91,0.00,,,0.00,0.000000,,2013-02-25 07:01:00,
2013-02-25 02:32:00,56.0,54.0,-100.00,SE,144,0.0,2.0,93,0.00,,,0.00,0.000000,,2013-02-25 07:32:00,
2013-02-25 02:42:00,56.0,54.0,-100.00,SE,144,0.0,2.0,93,0.00,,,0.00,0.000000,,2013-02-25 07:42:00,
2013-02-25 02:52:00,56.0,54.0,-100.00,SE,144,0.0,2.0,93,0.00,,,0.00,0.000000,,2013-02-25 07:52:00,
2013-02-25 03:01:00,56.0,54.0,-100.00,SE,144,0.0,2.0,93,0.00,,,0.00,0.000000,,2013-02-25 08:01:00,
2013-02-25 03:32:00,57.0,55.0,-100.00,NE,53,0.0,4.0,93,0.00,,,0.00,0.000000,,2013-02-25 08:32:00,
2013-02-25 03:42:00,57.0,55.0,-100.00,NE,53,0.0,4.0,93,0.00,,,0.00,0.000000,,2013-02-25 08:42:00,
2013-02-25 03:52:00,57.0,55.0,-100.00,NE,53,0.0,4.0,93,0.00,,,0.00,0.000000,,2013-02-25 08:52:00,
2013-02-25 04:02:00,57.0,55.0,-100.00,NE,53,0.0,4.0,93,0.00,,,0.00,0.000000,,2013-02-25 09:02:00,
2013-02-25 04:32:00,57.0,55.0,-100.00,ESE,114,2.0,5.0,93,0.01,,,0.01,0.000000,,2013-02-25 09:32:00,
2013-02-25 04:42:00,57.0,55.0,-100.00,ESE,114,2.0,5.0,93,0.01,,,0.01,0.000000,,2013-02-25 09:42:00,
2013-02-25 04:52:00,57.0,55.0,-100.00,ESE,114,2.0,5.0,93,0.01,,,0.01,0.000000,,2013-02-25 09:52:00,
2013-02-25 05:01:00,57.0,55.0,-100.00,ESE,114,2.0,5.0,93,0.01,,,0.01,0.000000,,2013-02-25 10:01:00,
2013-02-25 05:21:00,56.0,53.0,-100.00,SE,127,3.0,5.0,89,0.01,,,0.02,0.000000,,2013-02-25 10:21:00,
2013-02-25 05:32:00,56.0,53.0,-100.00,SE,127,3.0,5.0,89,0.01,,,0.02,0.000000,,2013-02-25 10:32:00,
2013-02-25 05:42:00,56.0,53.0,-100.00,SE,127,3.0,5.0,89,0.01,,,0.02,0.000000,,2013-02-25 10:42:00,
2013-02-25 05:52:00,56.0,53.0,-100.00,SE,127,3.0,5.0,89,0.01,,,0.02,0.000000,,2013-02-25 10:52:00,
2013-02-25 06:01:00,56.0,53.0,-100.00,SE,127,3.0,5.0,89,0.01,,,0.02,0.000000,,2013-02-25 11:01:00,
2013-02-25 06:22:00,54.0,52.0,-100.00,ENE,60,2.0,5.0,93,0.09,,,0.11,0.000000,,2013-02-25 11:22:00,
2013-02-25 06:32:00,54.0,52.0,-100.00,ENE,60,2.0,5.0,93,0.09,,,0.11,0.000000,,2013-02-25 11:32:00,
2013-02-25 06:42:00,54.0,52.0,-100.00,ENE,60,2.0,5.0,93,0.09,,,0.11,0.000000,,2013-02-25 11:42:00,
2013-02-25 06:52:00,54.0,52.0,-100.00,ENE,60,2.0,5.0,93,0.09,,,0.11,0.000000,,2013-02-25 11:52:00,
2013-02-25 07:02:00,54.0,52.0,-100.00,ENE,60,2.0,5.0,93,0.09,,,0.11,0.000000,,2013-02-25 12:02:00,
2013-02-25 07:22:00,53.0,51.0,-100.00,East,89,4.0,8.0,93,0.18,,,0.29,0.000000,,2013-02-25 12:22:00,
2013-02-25 07:32:00,53.0,51.0,-100.00,East,89,4.0,8.0,93,0.18,,,0.29,0.000000,,2013-02-25 12:32:00,
2013-02-25 07:42:00,53.0,51.0,-100.00,East,89,4.0,8.0,93,0.18,,,0.29,0.000000,,2013-02-25 12:42:00,
2013-02-25 07:56:00,53.0,51.0,-100.00,East,89,4.0,8.0,93,0.18,,,0.29,0.000000,,2013-02-25 12:56:00,
2013-02-25 08:02:00,53.0,51.0,-100.00,East,89,4.0,8.0,93,0.18,,,0.29,0.000000,,2013-02-25 13:02:00,
2013-02-25 08:23:00,53.0,50.0,-100.00,ENE,73,3.0,10.0,91,0.16,,,0.45,3.000000,,2013-02-25 13:23:00,
2013-02-25 08:32:00,53.0,50.0,-100.00,ENE,73,3.0,10.0,91,0.16,,,0.45,3.000000,,2013-02-25 13:32:00,
2013-02-25 08:42:00,53.0,50.0,-100.00,ENE,73,3.0,10.0,91,0.16,,,0.45,3.000000,,2013-02-25 13:42:00,
2013-02-25 08:52:00,53.0,50.0,-100.00,ENE,73,3.0,10.0,91,0.16,,,0.45,3.000000,,2013-02-25 13:52:00,
2013-02-25 09:03:00,53.0,50.0,-100.00,ENE,73,3.0,10.0,91,0.16,,,0.45,3.000000,,2013-02-25 14:03:00,
2013-02-25 09:32:00,53.0,51.0,-100.00,East,83,3.0,8.0,93,0.09,,,0.54,18.000000,,2013-02-25 14:32:00,
2013-02-25 09:42:00,53.0,51.0,-100.00,East,83,3.0,8.0,93,0.09,,,0.54,18.000000,,2013-02-25 14:42:00,
2013-02-25 09:52:00,53.0,51.0,-100.00,East,83,3.0,8.0,93,0.09,,,0.54,18.000000,,2013-02-25 14:52:00,
2013-02-25 10:03:00,53.0,51.0,-100.00,East,83,3.0,8.0,93,0.09,,,0.54,18.000000,,2013-02-25 15:03:00,
2013-02-25 10:22:00,54.0,52.0,-100.00,ENE,59,4.0,8.0,94,0.17,,,0.71,36.000000,,2013-02-25 15:22:00,
2013-02-25 10:32:00,54.0,52.0,-100.00,ENE,59,4.0,8.0,94,0.17,,,0.71,36.000000,,2013-02-25 15:32:00,
2013-02-25 10:42:00,54.0,52.0,-100.00,ENE,59,4.0,8.0,94,0.17,,,0.71,36.000000,,2013-02-25 15:42:00,
2013-02-25 10:52:00,54.0,52.0,-100.00,ENE,59,4.0,8.0,94,0.17,,,0.71,36.000000,,2013-02-25 15:52:00,
2013-02-25 11:02:00,54.0,52.0,-100.00,ENE,59,4.0,8.0,94,0.17,,,0.71,36.000000,,2013-02-25 16:02:00,
2013-02-25 11:32:00,55.0,53.0,-100.00,NE,45,3.0,8.0,94,0.09,,,0.80,51.000000,,2013-02-25 16:32:00,
2013-02-25 11:42:00,55.0,53.0,-100.00,NE,45,3.0,8.0,94,0.09,,,0.80,51.000000,,2013-02-25 16:42:00,
2013-02-25 11:52:00,55.0,53.0,-100.00,NE,45,3.0,8.0,94,0.09,,,0.80,51.000000,,2013-02-25 16:52:00,
2013-02-25 12:02:00,55.0,53.0,-100.00,NE,45,3.0,8.0,94,0.09,,,0.80,51.000000,,2013-02-25 17:02:00,
2013-02-25 12:32:00,57.0,55.0,-100.00,East,87,6.0,15.0,94,0.11,,,0.91,83.000000,,2013-02-25 17:32:00,
2013-02-25 12:42:00,57.0,55.0,-100.00,East,87,6.0,15.0,94,0.11,,,0.91,83.000000,,2013-02-25 17:42:00,
2013-02-25 12:52:00,57.0,55.0,-100.00,East,87,6.0,15.0,94,0.11,,,0.91,83.000000,,2013-02-25 17:52:00,
2013-02-25 13:02:00,57.0,55.0,-100.00,East,87,6.0,15.0,94,0.11,,,0.91,83.000000,,2013-02-25 18:02:00,
2013-02-25 13:33:00,57.0,55.0,-100.00,East,93,6.0,13.0,94,0.12,,,1.03,61.000000,,2013-02-25 18:33:00,
2013-02-25 13:42:00,57.0,55.0,-100.00,East,93,6.0,13.0,94,0.12,,,1.03,61.000000,,2013-02-25 18:42:00,
2013-02-25 13:52:00,57.0,55.0,-100.00,East,93,6.0,13.0,94,0.12,,,1.03,61.000000,,2013-02-25 18:52:00,
2013-02-25 14:01:00,57.0,55.0,-100.00,East,93,6.0,13.0,94,0.12,,,1.03,61.000000,,2013-02-25 19:01:00,
2013-02-25 14:32:00,57.0,55.0,-100.00,NE,47,5.0,12.0,93,0.09,,,1.12,66.000000,,2013-02-25 19:32:00,
2013-02-25 14:42:00,57.0,55.0,-100.00,NE,47,5.0,12.0,93,0.09,,,1.12,66.000000,,2013-02-25 19:42:00,
2013-02-25 14:52:00,57.0,55.0,-100.00,NE,47,5.0,12.0,93,0.09,,,1.12,66.000000,,2013-02-25 19:52:00,
2013-02-25 15:01:00,57.0,55.0,-100.00,NE,47,5.0,12.0,93,0.09,,,1.12,66.000000,,2013-02-25 20:01:00,
2013-02-25 15:22:00,58.0,56.0,-100.00,NE,43,4.0,10.0,94,0.02,,,1.14,56.000000,,2013-02-25 20:22:00,
2013-02-25 15:32:00,58.0,56.0,-100.00,NE,43,4.0,10.0,94,0.02,,,1.14,56.000000,,2013-02-25 20:32:00,
2013-02-25 15:42:00,58.0,56.0,-100.00,NE,43,4.0,10.0,94,0.02,,,1.14,56.000000,,2013-02-25 20:42:00,
2013-02-25 15:52:00,58.0,56.0,-100.00,NE,43,4.0,10.0,94,0.02,,,1.14,56.000000,,2013-02-25 20:52:00,
2013-02-25 16:02:00,58.0,56.0,-100.00,NE,43,4.0,10.0,94,0.02,,,1.14,56.000000,,2013-02-25 21:02:00,
2013-02-25 16:32:00,57.0,55.0,-100.00,NE,51,5.0,10.0,94,0.20,,,1.34,25.000000,,2013-02-25 21:32:00,
2013-02-25 16:42:00,57.0,55.0,-100.00,NE,51,5.0,10.0,94,0.20,,,1.34,25.000000,,2013-02-25 21:42:00,
2013-02-25 16:52:00,57.0,55.0,-100.00,NE,51,5.0,10.0,94,0.20,,,1.34,25.000000,,2013-02-25 21:52:00,
2013-02-25 17:01:00,57.0,55.0,-100.00,NE,51,5.0,10.0,94,0.20,,,1.34,25.000000,,2013-02-25 22:01:00,
2013-02-25 17:32:00,56.0,54.0,-100.00,ENE,70,6.0,15.0,93,0.11,,,1.45,21.000000,,2013-02-25 22:32:00,
2013-02-25 17:42:00,56.0,54.0,-100.00,ENE,70,6.0,15.0,93,0.11,,,1.45,21.000000,,2013-02-25 22:42:00,
2013-02-25 17:52:00,56.0,54.0,-100.00,ENE,70,6.0,15.0,93,0.11,,,1.45,21.000000,,2013-02-25 22:52:00,
2013-02-25 18:01:00,56.0,54.0,-100.00,ENE,70,6.0,15.0,93,0.11,,,1.45,21.000000,,2013-02-25 23:01:00,
2013-02-25 18:32:00,56.0,54.0,-100.00,East,85,7.0,14.0,94,0.12,,,1.57,8.000000,,2013-02-25 23:32:00,
2013-02-25 18:42:00,56.0,54.0,-100.00,East,85,7.0,14.0,94,0.12,,,1.57,8.000000,,2013-02-25 23:42:00,
2013-02-25 18:52:00,56.0,54.0,-100.00,East,85,7.0,14.0,94,0.12,,,1.57,8.000000,,2013-02-25 23:52:00,
2013-02-25 19:02:00,56.0,54.0,-100.00,East,85,7.0,14.0,94,0.12,,,1.57,8.000000,,2013-02-26 00:02:00,
2013-02-25 19:22:00,56.0,54.0,-100.00,East,84,9.0,16.0,94,0.04,,,1.61,0.000000,,2013-02-26 00:22:00,
2013-02-25 19:32:00,56.0,54.0,-100.00,East,84,9.0,16.0,94,0.04,,,1.61,0.000000,,2013-02-26 00:32:00,
2013-02-25 19:42:00,56.0,54.0,-100.00,East,84,9.0,16.0,94,0.04,,,1.61,0.000000,,2013-02-26 00:42:00,
2013-02-25 19:52:00,56.0,54.0,-100.00,East,84,9.0,16.0,94,0.04,,,1.61,0.000000,,2013-02-26 00:52:00,
2013-02-25 20:02:00,56.0,54.0,-100.00,East,84,9.0,16.0,94,0.04,,,1.61,0.000000,,2013-02-26 01:02:00,
2013-02-25 20:32:00,58.0,56.0,-100.00,East,97,8.0,19.0,94,0.00,,,1.61,0.000000,,2013-02-26 01:32:00,
2013-02-25 20:42:00,58.0,56.0,-100.00,East,97,8.0,19.0,94,0.00,,,1.61,0.000000,,2013-02-26 01:42:00,
2013-02-25 20:52:00,58.0,56.0,-100.00,East,97,8.0,19.0,94,0.00,,,1.61,0.000000,,2013-02-26 01:52:00,
2013-02-25 21:01:00,58.0,56.0,-100.00,East,97,8.0,19.0,94,0.00,,,1.61,0.000000,,2013-02-26 02:01:00,
2013-02-25 21:32:00,60.0,58.0,-100.00,East,95,4.0,12.0,94,0.00,,,1.61,0.000000,,2013-02-26 02:32:00,
2013-02-25 21:42:00,60.0,58.0,-100.00,East,95,4.0,12.0,94,0.00,,,1.61,0.000000,,2013-02-26 02:42:00,
2013-02-25 21:52:00,60.0,58.0,-100.00,East,95,4.0,12.0,94,0.00,,,1.61,0.000000,,2013-02-26 02:52:00,
2013-02-25 22:02:00,60.0,58.0,-100.00,East,95,4.0,12.0,94,0.00,,,1.61,0.000000,,2013-02-26 03:02:00,
2013-02-25 22:22:00,60.0,59.0,-100.00,East,87,3.0,5.0,95,0.01,,,1.62,0.000000,,2013-02-26 03:22:00,
2013-02-25 22:32:00,60.0,59.0,-100.00,East,87,3.0,5.0,95,0.01,,,1.62,0.000000,,2013-02-26 03:32:00,
2013-02-25 22:42:00,60.0,59.0,-100.00,East,87,3.0,5.0,95,0.01,,,1.62,0.000000,,2013-02-26 03:42:00,
2013-02-25 22:52:00,60.0,59.0,-100.00,East,87,3.0,5.0,95,0.01,,,1.62,0.000000,,2013-02-26 03:52:00,
2013-02-25 23:01:00,60.0,59.0,-100.00,East,87,3.0,5.0,95,0.01,,,1.62,0.000000,,2013-02-26 04:01:00,
2013-02-25 23:32:00,60.0,59.0,-100.00,ENE,63,3.0,7.0,95,0.00,,,1.62,0.000000,,2013-02-26 04:32:00,
2013-02-25 23:42:00,60.0,59.0,-100.00,ENE,63,3.0,7.0,95,0.00,,,1.62,0.000000,,2013-02-26 04:42:00,
2013-02-25 23:52:00,60.0,59.0,-100.00,ENE,63,3.0,7.0,95,0.00,,,1.62,0.000000,,2013-02-26 04:52:00,